createdAt,value
2023-03-05T00:00:01.753Z,84.92
2023-03-05T00:01:01.751Z,85.13
2023-03-05T00:02:01.736Z,85.13
2023-03-05T00:03:01.684Z,85.13
2023-03-05T00:04:01.686Z,85.24
2023-03-05T00:05:01.675Z,85.24
2023-03-05T00:06:01.668Z,85.13
2023-03-05T00:07:01.632Z,85.13
2023-03-05T00:08:01.663Z,85.24
2023-03-05T00:09:01.624Z,85.55
2023-03-05T00:10:01.680Z,85.44
2023-03-05T00:11:01.601Z,85.65
2023-03-05T00:12:01.597Z,85.65
2023-03-05T00:13:01.580Z,85.65
2023-03-05T00:14:01.562Z,85.65
2023-03-05T00:15:01.573Z,85.75
2023-03-05T00:16:01.585Z,86.17
2023-03-05T00:17:01.557Z,86.07
2023-03-05T00:18:01.532Z,85.86
2023-03-05T00:19:01.510Z,85.86
2023-03-05T00:20:02.493Z,85.75
2023-03-05T00:21:01.501Z,85.75
2023-03-05T00:22:01.515Z,85.75
2023-03-05T00:23:01.472Z,85.75
2023-03-05T00:24:01.458Z,85.86
2023-03-05T00:25:01.439Z,85.75
2023-03-05T00:26:01.450Z,85.96
2023-03-05T00:27:01.440Z,86.10
2023-03-05T00:28:01.413Z,86.00
2023-03-05T00:29:01.397Z,85.89
2023-03-05T00:30:01.400Z,85.89
2023-03-05T00:31:01.439Z,86.00
2023-03-05T00:32:01.468Z,86.10
2023-03-05T00:33:01.365Z,86.10
2023-03-05T00:34:01.379Z,85.89
2023-03-05T00:35:01.346Z,86.00
2023-03-05T00:36:01.430Z,86.10
2023-03-05T00:37:01.313Z,85.89
2023-03-05T00:38:01.313Z,86.00
2023-03-05T00:39:01.297Z,86.00
2023-03-05T00:40:01.372Z,86.00
2023-03-05T00:41:01.295Z,86.10
2023-03-05T00:42:01.259Z,86.21
2023-03-05T00:43:01.252Z,86.31
2023-03-05T00:44:01.234Z,85.89
2023-03-05T00:45:01.256Z,85.89
2023-03-05T00:46:01.236Z,85.89
2023-03-05T00:47:01.214Z,86.21
2023-03-05T00:48:01.300Z,86.31
2023-03-05T00:49:01.189Z,85.89
2023-03-05T00:50:01.211Z,86.00
2023-03-05T00:51:01.167Z,86.21
2023-03-05T00:52:01.146Z,86.21
2023-03-05T00:53:01.145Z,86.21
2023-03-05T00:54:01.148Z,86.31
2023-03-05T00:55:01.176Z,86.00
2023-03-05T00:56:01.141Z,86.00
2023-03-05T00:57:01.123Z,86.10
2023-03-05T00:58:01.084Z,86.10
2023-03-05T00:59:01.082Z,86.21
2023-03-05T01:00:01.067Z,86.21
2023-03-05T01:01:01.066Z,86.21
2023-03-05T01:02:01.078Z,86.21
2023-03-05T01:03:01.023Z,86.15
2023-03-05T01:04:01.013Z,86.21
2023-03-05T01:05:01.009Z,86.10
2023-03-05T01:06:01.016Z,86.10
2023-03-05T01:07:01.018Z,86.25
2023-03-05T01:08:00.965Z,86.35
2023-03-05T01:09:00.973Z,86.25
2023-03-05T01:10:00.962Z,86.35
2023-03-05T01:11:00.942Z,86.25
2023-03-05T01:12:00.936Z,86.25
2023-03-05T01:13:00.914Z,86.15
2023-03-05T01:14:00.910Z,86.04
2023-03-05T01:15:00.891Z,86.15
2023-03-05T01:16:00.910Z,86.15
2023-03-05T01:17:00.868Z,86.25
2023-03-05T01:18:00.870Z,86.25
2023-03-05T01:19:00.845Z,86.15
2023-03-05T01:20:00.836Z,86.04
2023-03-05T01:21:00.834Z,86.04
2023-03-05T01:22:00.810Z,86.04
2023-03-05T01:23:00.802Z,86.15
2023-03-05T01:24:00.775Z,86.25
2023-03-05T01:25:00.776Z,86.35
2023-03-05T01:26:00.745Z,86.35
2023-03-05T01:27:00.744Z,86.35
2023-03-05T01:28:00.725Z,86.25
2023-03-05T01:29:00.712Z,86.25
2023-03-05T01:30:00.722Z,86.15
2023-03-05T01:31:00.690Z,86.15
2023-03-05T01:32:00.727Z,86.15
2023-03-05T01:33:00.682Z,86.04
2023-03-05T01:34:00.668Z,86.04
2023-03-05T01:35:00.694Z,86.04
2023-03-05T01:36:00.649Z,86.25
2023-03-05T01:37:00.683Z,86.35
2023-03-05T01:38:00.618Z,86.35
2023-03-05T01:39:00.627Z,86.25
2023-03-05T01:40:00.646Z,86.25
2023-03-05T01:41:00.593Z,86.35
2023-03-05T01:42:00.581Z,86.45
2023-03-05T01:43:00.565Z,86.25
2023-03-05T01:44:00.567Z,86.25
2023-03-05T01:45:00.735Z,86.25
2023-03-05T01:46:00.583Z,86.35
2023-03-05T01:47:00.529Z,86.25
2023-03-05T01:48:00.551Z,86.25
2023-03-05T01:49:00.512Z,86.25
2023-03-05T01:50:00.512Z,86.29
2023-03-05T01:51:00.589Z,86.25
2023-03-05T01:52:00.471Z,86.39
2023-03-05T01:53:00.464Z,86.45
2023-03-05T01:54:00.471Z,86.49
2023-03-05T01:55:00.486Z,86.39
2023-03-05T01:56:00.441Z,86.49
2023-03-05T01:57:00.408Z,86.49
2023-03-05T01:58:00.385Z,86.39
2023-03-05T01:59:00.401Z,86.49
2023-03-05T02:00:00.371Z,86.60
2023-03-05T02:01:00.416Z,86.49
2023-03-05T02:02:00.356Z,86.49
2023-03-05T02:03:00.349Z,86.39
2023-03-05T02:04:00.411Z,86.29
2023-03-05T02:05:00.326Z,86.39
2023-03-05T02:06:00.313Z,86.29
2023-03-05T02:07:00.297Z,86.39
2023-03-05T02:08:00.272Z,86.49
2023-03-05T02:09:00.273Z,86.60
2023-03-05T02:10:00.254Z,86.70
2023-03-05T02:11:00.258Z,87.01
2023-03-05T02:12:00.232Z,87.01
2023-03-05T02:13:00.230Z,87.01
2023-03-05T02:14:00.216Z,87.01
2023-03-05T02:15:00.206Z,87.12
2023-03-05T02:16:00.202Z,87.22
2023-03-05T02:17:00.197Z,87.22
2023-03-05T02:18:00.176Z,87.22
2023-03-05T02:19:00.169Z,87.22
2023-03-05T02:20:00.158Z,87.32
2023-03-05T02:21:00.157Z,87.32
2023-03-05T02:22:00.126Z,87.32
2023-03-05T02:23:00.128Z,87.53
2023-03-05T02:24:00.122Z,87.63
2023-03-05T02:25:00.107Z,87.74
2023-03-05T02:26:00.112Z,87.74
2023-03-05T02:27:00.088Z,87.74
2023-03-05T02:28:00.086Z,87.74
2023-03-05T02:29:00.090Z,87.74
2023-03-05T02:30:00.040Z,87.74
2023-03-05T02:31:00.047Z,87.84
2023-03-05T02:32:00.155Z,87.84
2023-03-05T02:33:00.029Z,87.95
2023-03-05T02:33:59.999Z,87.84
2023-03-05T02:35:00.001Z,87.74
2023-03-05T02:36:00.049Z,87.74
2023-03-05T02:36:59.970Z,87.74
2023-03-05T02:37:59.965Z,87.84
2023-03-05T02:38:59.963Z,87.74
2023-03-05T02:39:59.934Z,87.88
2023-03-05T02:40:59.945Z,87.74
2023-03-05T02:41:59.932Z,87.57
2023-03-05T02:42:59.908Z,87.43
2023-03-05T02:43:59.893Z,87.57
2023-03-05T02:44:59.895Z,87.57
2023-03-05T02:45:59.965Z,87.47
2023-03-05T02:46:59.870Z,87.47
2023-03-05T02:47:59.852Z,87.47
2023-03-05T02:48:59.844Z,87.57
2023-03-05T02:49:59.831Z,87.57
2023-03-05T02:50:59.841Z,87.78
2023-03-05T02:51:59.811Z,87.88
2023-03-05T02:52:59.802Z,87.88
2023-03-05T02:53:59.804Z,87.78
2023-03-05T02:54:59.800Z,87.68
2023-03-05T02:55:59.783Z,87.68
2023-03-05T02:56:59.786Z,87.47
2023-03-05T02:57:59.779Z,87.37
2023-03-05T02:58:59.744Z,87.26
2023-03-05T02:59:59.837Z,87.47
2023-03-05T03:00:59.758Z,87.47
2023-03-05T03:01:59.700Z,87.37
2023-03-05T03:02:59.774Z,87.37
2023-03-05T03:03:59.746Z,87.37
2023-03-05T03:04:59.673Z,87.26
2023-03-05T03:05:59.702Z,87.26
2023-03-05T03:06:59.651Z,87.16
2023-03-05T03:07:59.637Z,87.16
2023-03-05T03:08:59.629Z,87.05
2023-03-05T03:09:59.605Z,87.05
2023-03-05T03:10:59.626Z,87.05
2023-03-05T03:11:59.593Z,87.05
2023-03-05T03:12:59.624Z,86.95
2023-03-05T03:13:59.624Z,87.05
2023-03-05T03:14:59.594Z,87.16
2023-03-05T03:15:59.565Z,87.37
2023-03-05T03:16:59.649Z,87.37
2023-03-05T03:17:59.526Z,87.26
2023-03-05T03:18:59.524Z,87.05
2023-03-05T03:19:59.505Z,86.95
2023-03-05T03:20:59.520Z,86.95
2023-03-05T03:21:59.478Z,86.74
2023-03-05T03:22:59.496Z,86.64
2023-03-05T03:23:59.473Z,86.64
2023-03-05T03:24:59.448Z,86.74
2023-03-05T03:25:59.463Z,86.64
2023-03-05T03:26:59.465Z,86.64
2023-03-05T03:27:59.441Z,86.64
2023-03-05T03:28:59.407Z,86.43
2023-03-05T03:29:59.406Z,86.43
2023-03-05T03:30:59.440Z,86.33
2023-03-05T03:31:59.410Z,86.12
2023-03-05T03:32:59.362Z,86.12
2023-03-05T03:33:59.359Z,86.12
2023-03-05T03:34:59.351Z,86.02
2023-03-05T03:35:59.437Z,86.02
2023-03-05T03:36:59.322Z,85.81
2023-03-05T03:37:59.328Z,85.60
2023-03-05T03:38:59.305Z,85.50
2023-03-05T03:39:59.311Z,85.71
2023-03-05T03:40:59.404Z,85.81
2023-03-05T03:41:59.343Z,85.91
2023-03-05T03:42:59.254Z,86.22
2023-03-05T03:43:59.243Z,86.54
2023-03-05T03:44:59.243Z,86.74
2023-03-05T03:45:59.305Z,86.95
2023-03-05T03:46:59.213Z,86.85
2023-03-05T03:47:59.202Z,86.54
2023-03-05T03:48:59.199Z,86.43
2023-03-05T03:49:59.207Z,86.43
2023-03-05T03:50:59.208Z,86.33
2023-03-05T03:51:59.154Z,86.22
2023-03-05T03:52:59.159Z,86.12
2023-03-05T03:53:59.133Z,86.22
2023-03-05T03:54:59.133Z,86.33
2023-03-05T03:55:59.125Z,86.33
2023-03-05T03:56:59.113Z,86.43
2023-03-05T03:57:59.098Z,86.43
2023-03-05T03:58:59.095Z,86.43
2023-03-05T03:59:59.085Z,86.43
2023-03-05T04:00:59.072Z,86.54
2023-03-05T04:01:59.053Z,86.64
2023-03-05T04:02:59.053Z,86.64
2023-03-05T04:03:59.094Z,86.74
2023-03-05T04:04:59.026Z,86.88
2023-03-05T04:05:59.035Z,86.95
2023-03-05T04:06:59.006Z,87.05
2023-03-05T04:07:58.990Z,87.09
2023-03-05T04:08:58.976Z,87.05
2023-03-05T04:09:58.972Z,87.19
2023-03-05T04:10:58.982Z,87.09
2023-03-05T04:11:58.947Z,87.19
2023-03-05T04:12:58.952Z,87.19
2023-03-05T04:13:58.916Z,87.19
2023-03-05T04:14:58.918Z,87.30
2023-03-05T04:15:58.980Z,87.40
2023-03-05T04:16:58.904Z,87.40
2023-03-05T04:17:58.878Z,87.51
2023-03-05T04:18:58.877Z,87.61
2023-03-05T04:19:58.858Z,87.51
2023-03-05T04:20:58.869Z,87.51
2023-03-05T04:21:58.849Z,87.61
2023-03-05T04:22:58.828Z,87.71
2023-03-05T04:23:58.819Z,87.61
2023-03-05T04:24:58.811Z,87.51
2023-03-05T04:25:58.810Z,87.51
2023-03-05T04:26:58.791Z,87.40
2023-03-05T04:27:58.767Z,87.40
2023-03-05T04:28:58.764Z,87.40
2023-03-05T04:29:58.756Z,87.30
2023-03-05T04:30:58.778Z,87.19
2023-03-05T04:31:58.776Z,87.19
2023-03-05T04:32:58.714Z,87.19
2023-03-05T04:33:58.706Z,87.30
2023-03-05T04:34:58.697Z,87.19
2023-03-05T04:35:58.767Z,87.19
2023-03-05T04:36:58.681Z,87.19
2023-03-05T04:37:58.806Z,87.19
2023-03-05T04:38:58.659Z,87.09
2023-03-05T04:39:58.645Z,86.99
2023-03-05T04:40:58.659Z,86.78
2023-03-05T04:41:58.651Z,86.78
2023-03-05T04:42:58.613Z,86.88
2023-03-05T04:43:58.583Z,86.99
2023-03-05T04:44:58.582Z,86.99
2023-03-05T04:45:58.673Z,86.99
2023-03-05T04:46:58.585Z,86.88
2023-03-05T04:47:58.542Z,86.99
2023-03-05T04:48:58.541Z,86.99
2023-03-05T04:49:58.521Z,87.09
2023-03-05T04:50:58.520Z,87.19
2023-03-05T04:51:58.511Z,87.19
2023-03-05T04:52:58.495Z,87.40
2023-03-05T04:53:58.502Z,87.51
2023-03-05T04:54:58.470Z,87.40
2023-03-05T04:55:58.472Z,87.51
2023-03-05T04:56:58.444Z,87.51
2023-03-05T04:57:58.465Z,87.51
2023-03-05T04:58:58.433Z,87.51
2023-03-05T04:59:58.413Z,87.51
2023-03-05T05:00:58.402Z,87.40
2023-03-05T05:01:58.584Z,87.40
2023-03-05T05:02:58.516Z,87.51
2023-03-05T05:03:58.363Z,87.61
2023-03-05T05:04:58.363Z,87.71
2023-03-05T05:05:58.346Z,87.71
2023-03-05T05:06:58.334Z,87.61
2023-03-05T05:07:58.447Z,87.51
2023-03-05T05:08:58.325Z,87.40
2023-03-05T05:09:58.362Z,87.19
2023-03-05T05:10:58.306Z,87.19
2023-03-05T05:11:58.292Z,87.19
2023-03-05T05:12:58.276Z,87.19
2023-03-05T05:13:58.257Z,87.19
2023-03-05T05:14:58.245Z,87.19
2023-03-05T05:15:58.342Z,87.09
2023-03-05T05:16:58.246Z,87.09
2023-03-05T05:17:58.224Z,87.30
2023-03-05T05:18:58.221Z,87.30
2023-03-05T05:19:58.365Z,87.30
2023-03-05T05:20:58.190Z,87.30
2023-03-05T05:21:58.177Z,87.30
2023-03-05T05:22:58.165Z,87.19
2023-03-05T05:23:58.165Z,87.19
2023-03-05T05:24:58.136Z,87.19
2023-03-05T05:25:58.193Z,87.30
2023-03-05T05:26:58.125Z,87.40
2023-03-05T05:27:58.206Z,87.40
2023-03-05T05:28:58.096Z,87.40
2023-03-05T05:29:58.077Z,87.40
2023-03-05T05:30:58.079Z,87.55
2023-03-05T05:31:58.078Z,87.65
2023-03-05T05:32:58.087Z,87.65
2023-03-05T05:33:58.039Z,87.65
2023-03-05T05:34:58.050Z,87.76
2023-03-05T05:35:58.147Z,87.76
2023-03-05T05:36:58.008Z,87.76
2023-03-05T05:37:58.020Z,87.96
2023-03-05T05:38:57.990Z,88.17
2023-03-05T05:39:58.071Z,88.17
2023-03-05T05:40:57.991Z,88.28
2023-03-05T05:41:58.041Z,88.28
2023-03-05T05:42:57.961Z,88.28
2023-03-05T05:43:58.111Z,88.38
2023-03-05T05:44:57.983Z,88.38
2023-03-05T05:45:58.149Z,88.38
2023-03-05T05:46:57.909Z,88.48
2023-03-05T05:47:57.904Z,88.59
2023-03-05T05:48:57.885Z,88.69
2023-03-05T05:49:57.963Z,88.69
2023-03-05T05:50:57.878Z,88.69
2023-03-05T05:51:57.986Z,88.69
2023-03-05T05:52:57.849Z,88.79
2023-03-05T05:53:57.867Z,88.59
2023-03-05T05:54:57.816Z,88.69
2023-03-05T05:55:57.826Z,88.69
2023-03-05T05:56:57.796Z,88.69
2023-03-05T05:57:57.825Z,89.00
2023-03-05T05:58:57.775Z,89.00
2023-03-05T05:59:57.879Z,89.00
2023-03-05T06:00:57.765Z,89.00
2023-03-05T06:01:57.848Z,89.00
2023-03-05T06:02:57.766Z,89.00
2023-03-05T06:03:57.740Z,89.11
2023-03-05T06:04:58.316Z,89.21
2023-03-05T06:05:57.724Z,89.21
2023-03-05T06:06:57.686Z,89.21
2023-03-05T06:07:57.786Z,89.31
2023-03-05T06:08:57.682Z,89.31
2023-03-05T06:09:57.656Z,89.42
2023-03-05T06:10:57.645Z,89.42
2023-03-05T06:11:57.638Z,89.52
2023-03-05T06:12:57.618Z,89.42
2023-03-05T06:13:57.622Z,89.52
2023-03-05T06:14:57.607Z,89.52
2023-03-05T06:15:57.655Z,89.42
2023-03-05T06:16:57.594Z,89.52
2023-03-05T06:17:57.568Z,89.42
2023-03-05T06:18:57.557Z,89.42
2023-03-05T06:19:57.560Z,89.52
2023-03-05T06:20:57.569Z,89.52
2023-03-05T06:21:57.519Z,89.62
2023-03-05T06:22:57.508Z,89.62
2023-03-05T06:23:57.508Z,89.62
2023-03-05T06:24:57.490Z,89.62
2023-03-05T06:25:57.498Z,89.62
2023-03-05T06:26:57.478Z,89.83
2023-03-05T06:27:57.481Z,89.94
2023-03-05T06:28:57.457Z,89.83
2023-03-05T06:29:57.476Z,89.83
2023-03-05T06:30:57.524Z,89.83
2023-03-05T06:31:57.466Z,89.83
2023-03-05T06:32:57.410Z,89.83
2023-03-05T06:33:57.397Z,89.94
2023-03-05T06:34:57.389Z,89.94
2023-03-05T06:35:57.985Z,89.94
2023-03-05T06:36:57.369Z,89.83
2023-03-05T06:37:57.338Z,89.94
2023-03-05T06:38:57.334Z,89.83
2023-03-05T06:39:57.319Z,89.94
2023-03-05T06:40:57.328Z,89.94
2023-03-05T06:41:57.298Z,90.04
2023-03-05T06:42:57.298Z,90.14
2023-03-05T06:43:57.287Z,90.14
2023-03-05T06:44:57.280Z,90.14
2023-03-05T06:45:57.367Z,90.14
2023-03-05T06:46:57.248Z,90.14
2023-03-05T06:47:57.238Z,90.14
2023-03-05T06:48:57.227Z,90.14
2023-03-05T06:49:57.218Z,90.14
2023-03-05T06:50:57.218Z,90.14
2023-03-05T06:51:57.200Z,90.04
2023-03-05T06:52:57.180Z,89.94
2023-03-05T06:53:57.184Z,90.04
2023-03-05T06:54:57.158Z,90.04
2023-03-05T06:55:57.170Z,90.14
2023-03-05T06:56:57.139Z,90.14
2023-03-05T06:57:57.128Z,90.14
2023-03-05T06:58:57.120Z,90.14
2023-03-05T06:59:57.113Z,90.25
2023-03-05T07:00:57.149Z,90.35
2023-03-05T07:01:57.100Z,90.35
2023-03-05T07:02:57.082Z,90.35
2023-03-05T07:03:57.069Z,90.25
2023-03-05T07:04:57.057Z,90.25
2023-03-05T07:05:57.059Z,90.25
2023-03-05T07:06:57.026Z,90.25
2023-03-05T07:07:57.020Z,90.25
2023-03-05T07:08:57.025Z,90.14
2023-03-05T07:09:57.005Z,90.14
2023-03-05T07:10:57.002Z,90.14
2023-03-05T07:11:56.988Z,90.04
2023-03-05T07:12:56.981Z,89.94
2023-03-05T07:13:56.959Z,89.83
2023-03-05T07:14:56.949Z,89.94
2023-03-05T07:15:57.028Z,89.94
2023-03-05T07:16:56.923Z,89.94
2023-03-05T07:17:56.922Z,90.04
2023-03-05T07:18:56.899Z,90.04
2023-03-05T07:19:56.892Z,90.00
2023-03-05T07:20:56.890Z,90.00
2023-03-05T07:21:56.881Z,90.00
2023-03-05T07:22:56.861Z,89.89
2023-03-05T07:23:56.863Z,89.89
2023-03-05T07:24:56.836Z,90.00
2023-03-05T07:25:56.841Z,90.00
2023-03-05T07:26:56.813Z,90.00
2023-03-05T07:27:56.812Z,90.10
2023-03-05T07:28:56.791Z,90.20
2023-03-05T07:29:56.785Z,90.10
2023-03-05T07:30:56.811Z,90.20
2023-03-05T07:31:56.770Z,90.20
2023-03-05T07:32:56.768Z,90.20
2023-03-05T07:33:56.731Z,90.20
2023-03-05T07:34:56.735Z,90.10
2023-03-05T07:35:56.801Z,90.00
2023-03-05T07:36:56.702Z,89.89
2023-03-05T07:37:56.698Z,90.00
2023-03-05T07:38:56.688Z,90.06
2023-03-05T07:39:56.665Z,89.96
2023-03-05T07:40:56.685Z,90.06
2023-03-05T07:41:56.663Z,90.17
2023-03-05T07:42:56.843Z,90.17
2023-03-05T07:43:57.137Z,90.17
2023-03-05T07:44:56.713Z,90.17
2023-03-05T07:45:56.838Z,90.27
2023-03-05T07:46:56.660Z,90.06
2023-03-05T07:47:56.922Z,90.02
2023-03-05T07:48:56.983Z,89.92
2023-03-05T07:49:56.673Z,89.61
2023-03-05T07:50:56.693Z,89.40
2023-03-05T07:51:56.567Z,89.40
2023-03-05T07:52:56.760Z,89.40
2023-03-05T07:53:56.570Z,89.19
2023-03-05T07:54:56.637Z,89.19
2023-03-05T07:55:56.628Z,88.98
2023-03-05T07:56:56.514Z,88.98
2023-03-05T07:57:56.506Z,88.88
2023-03-05T07:58:56.558Z,88.78
2023-03-05T07:59:56.504Z,88.98
2023-03-05T08:00:56.519Z,88.94
2023-03-05T08:01:56.666Z,88.63
2023-03-05T08:02:56.464Z,88.73
2023-03-05T08:03:56.516Z,88.84
2023-03-05T08:04:56.472Z,88.73
2023-03-05T08:05:56.428Z,89.00
2023-03-05T08:06:56.602Z,88.39
2023-03-05T08:07:56.378Z,88.18
2023-03-05T08:08:56.457Z,87.97
2023-03-05T08:09:56.374Z,87.45
2023-03-05T08:10:56.447Z,87.24
2023-03-05T08:11:56.346Z,87.66
2023-03-05T08:12:56.383Z,87.55
2023-03-05T08:13:56.390Z,87.24
2023-03-05T08:14:56.337Z,87.35
2023-03-05T08:15:56.380Z,86.93
2023-03-05T08:16:56.344Z,87.35
2023-03-05T08:17:56.497Z,87.45
2023-03-05T08:18:56.279Z,87.04
2023-03-05T08:19:56.393Z,86.83
2023-03-05T08:20:56.472Z,86.72
2023-03-05T08:21:56.541Z,87.04
2023-03-05T08:22:56.321Z,87.04
2023-03-05T08:23:56.221Z,86.62
2023-03-05T08:24:56.223Z,86.31
2023-03-05T08:25:56.290Z,85.58
2023-03-05T08:26:56.218Z,85.69
2023-03-05T08:27:56.182Z,86.00
2023-03-05T08:28:56.221Z,86.41
2023-03-05T08:29:56.159Z,86.31
2023-03-05T08:30:56.211Z,86.62
2023-03-05T08:31:56.269Z,86.62
2023-03-05T08:32:56.204Z,86.21
2023-03-05T08:33:56.168Z,85.89
2023-03-05T08:34:56.115Z,85.69
2023-03-05T08:35:56.159Z,85.38
2023-03-05T08:36:56.129Z,85.48
2023-03-05T08:37:56.125Z,85.44
2023-03-05T08:38:56.405Z,85.06
2023-03-05T08:39:56.241Z,84.96
2023-03-05T08:40:56.186Z,84.86
2023-03-05T08:41:56.221Z,84.65
2023-03-05T08:42:56.069Z,84.65
2023-03-05T08:43:56.002Z,84.92
2023-03-05T08:44:55.989Z,84.86
2023-03-05T08:45:56.091Z,84.55
2023-03-05T08:46:56.282Z,84.86
2023-03-05T08:47:55.984Z,84.75
2023-03-05T08:48:56.100Z,85.03
2023-03-05T08:49:55.965Z,84.65
2023-03-05T08:50:56.122Z,84.96
2023-03-05T08:51:55.980Z,85.13
2023-03-05T08:52:55.902Z,85.65
2023-03-05T08:53:55.904Z,85.03
2023-03-05T08:54:55.887Z,85.13
2023-03-05T08:55:55.881Z,85.44
2023-03-05T08:56:55.956Z,85.55
2023-03-05T08:57:55.976Z,85.44
2023-03-05T08:58:55.955Z,85.34
2023-03-05T08:59:55.853Z,85.24
2023-03-05T09:00:55.939Z,85.03
2023-03-05T09:01:56.085Z,85.13
2023-03-05T09:02:55.933Z,85.13
2023-03-05T09:03:55.883Z,85.34
2023-03-05T09:04:55.821Z,85.34
2023-03-05T09:05:55.814Z,85.65
2023-03-05T09:06:56.035Z,85.55
2023-03-05T09:07:55.746Z,85.34
2023-03-05T09:08:56.040Z,84.92
2023-03-05T09:09:55.698Z,84.82
2023-03-05T09:10:55.723Z,84.61
2023-03-05T09:11:56.247Z,85.03
2023-03-05T09:12:55.721Z,84.72
2023-03-05T09:13:55.727Z,84.72
2023-03-05T09:14:55.674Z,84.78
2023-03-05T09:15:55.804Z,84.78
2023-03-05T09:16:56.253Z,84.68
2023-03-05T09:17:55.855Z,84.58
2023-03-05T09:18:55.636Z,84.27
2023-03-05T09:19:55.736Z,84.68
2023-03-05T09:20:55.709Z,84.88
2023-03-05T09:21:57.113Z,84.06
2023-03-05T09:22:55.748Z,83.95
2023-03-05T09:23:55.567Z,84.47
2023-03-05T09:24:55.809Z,84.16
2023-03-05T09:25:55.727Z,83.75
2023-03-05T09:26:55.644Z,83.75
2023-03-05T09:27:56.029Z,84.01
2023-03-05T09:28:55.651Z,83.75
2023-03-05T09:29:55.659Z,84.22
2023-03-05T09:30:55.519Z,84.12
2023-03-05T09:31:56.125Z,83.71
2023-03-05T09:32:55.508Z,83.50
2023-03-05T09:33:56.262Z,83.61
2023-03-05T09:34:55.450Z,83.40
2023-03-05T09:35:55.590Z,83.61
2023-03-05T09:36:55.568Z,83.40
2023-03-05T09:37:55.480Z,83.50
2023-03-05T09:38:55.488Z,83.50
2023-03-05T09:39:55.431Z,83.09
2023-03-05T09:40:55.559Z,83.09
2023-03-05T09:41:55.600Z,83.29
2023-03-05T09:42:55.402Z,83.61
2023-03-05T09:43:55.338Z,83.19
2023-03-05T09:44:55.337Z,83.40
2023-03-05T09:45:55.357Z,83.19
2023-03-05T09:46:55.837Z,83.29
2023-03-05T09:47:55.430Z,83.61
2023-03-05T09:48:55.298Z,83.67
2023-03-05T09:49:55.365Z,83.56
2023-03-05T09:50:55.312Z,83.25
2023-03-05T09:51:55.315Z,82.64
2023-03-05T09:52:55.402Z,82.32
2023-03-05T09:53:55.312Z,82.43
2023-03-05T09:54:55.357Z,82.43
2023-03-05T09:55:55.201Z,82.12
2023-03-05T09:56:55.317Z,81.70
2023-03-05T09:57:55.167Z,81.49
2023-03-05T09:58:56.242Z,81.67
2023-03-05T09:59:55.155Z,80.53
2023-03-05T10:00:55.134Z,80.63
2023-03-05T10:01:55.143Z,80.39
2023-03-05T10:02:55.177Z,80.29
2023-03-05T10:03:55.190Z,79.83
2023-03-05T10:04:55.126Z,79.38
2023-03-05T10:05:55.088Z,78.52
2023-03-05T10:06:55.087Z,77.70
2023-03-05T10:07:55.072Z,77.18
2023-03-05T10:08:55.043Z,77.45
2023-03-05T10:09:55.054Z,76.84
2023-03-05T10:10:55.036Z,76.73
2023-03-05T10:11:55.067Z,76.84
2023-03-05T10:12:55.006Z,76.84
2023-03-05T10:13:54.999Z,75.70
2023-03-05T10:14:54.981Z,74.77
2023-03-05T10:15:54.970Z,75.22
2023-03-05T10:16:55.012Z,75.84
2023-03-05T10:17:54.947Z,75.01
2023-03-05T10:18:54.937Z,75.01
2023-03-05T10:19:54.942Z,74.91
2023-03-05T10:20:54.913Z,74.91
2023-03-05T10:21:54.913Z,75.67
2023-03-05T10:22:54.896Z,75.26
2023-03-05T10:23:54.912Z,75.05
2023-03-05T10:24:54.859Z,74.77
2023-03-05T10:25:54.867Z,75.39
2023-03-05T10:26:54.892Z,75.81
2023-03-05T10:27:54.841Z,76.32
2023-03-05T10:28:54.828Z,76.53
2023-03-05T10:29:54.832Z,76.56
2023-03-05T10:30:54.812Z,76.98
2023-03-05T10:31:54.831Z,77.08
2023-03-05T10:32:54.781Z,77.29
2023-03-05T10:33:54.901Z,77.91
2023-03-05T10:34:54.761Z,77.60
2023-03-05T10:35:54.819Z,78.32
2023-03-05T10:36:56.219Z,78.22
2023-03-05T10:37:54.729Z,78.77
2023-03-05T10:38:54.729Z,79.60
2023-03-05T10:39:54.729Z,79.49
2023-03-05T10:40:54.694Z,79.80
2023-03-05T10:41:54.691Z,79.70
2023-03-05T10:42:54.675Z,79.29
2023-03-05T10:43:54.665Z,79.49
2023-03-05T10:44:54.658Z,79.08
2023-03-05T10:45:54.694Z,79.29
2023-03-05T10:46:55.989Z,79.60
2023-03-05T10:47:54.641Z,79.91
2023-03-05T10:48:54.602Z,79.49
2023-03-05T10:49:54.624Z,79.39
2023-03-05T10:50:54.582Z,79.29
2023-03-05T10:51:54.580Z,79.39
2023-03-05T10:52:54.565Z,78.25
2023-03-05T10:53:54.554Z,78.56
2023-03-05T10:54:54.553Z,78.77
2023-03-05T10:55:54.535Z,78.88
2023-03-05T10:56:54.526Z,78.77
2023-03-05T10:57:54.504Z,79.19
2023-03-05T10:58:54.504Z,79.39
2023-03-05T10:59:54.527Z,79.08
2023-03-05T11:00:54.616Z,78.15
2023-03-05T11:01:54.464Z,78.46
2023-03-05T11:02:54.542Z,78.15
2023-03-05T11:03:54.442Z,77.53
2023-03-05T11:04:54.486Z,77.33
2023-03-05T11:05:54.423Z,77.43
2023-03-05T11:06:54.407Z,77.01
2023-03-05T11:07:54.413Z,77.74
2023-03-05T11:08:54.404Z,77.64
2023-03-05T11:09:54.374Z,77.43
2023-03-05T11:10:54.354Z,77.22
2023-03-05T11:11:54.363Z,77.33
2023-03-05T11:12:54.359Z,77.33
2023-03-05T11:13:54.336Z,77.53
2023-03-05T11:14:54.312Z,77.84
2023-03-05T11:15:54.349Z,78.15
2023-03-05T11:16:54.294Z,78.15
2023-03-05T11:17:54.297Z,77.84
2023-03-05T11:18:54.272Z,77.33
2023-03-05T11:19:54.274Z,77.53
2023-03-05T11:20:54.256Z,77.84
2023-03-05T11:21:54.243Z,78.08
2023-03-05T11:22:54.233Z,78.46
2023-03-05T11:23:54.222Z,78.15
2023-03-05T11:24:54.202Z,78.36
2023-03-05T11:25:54.195Z,78.46
2023-03-05T11:26:54.182Z,78.36
2023-03-05T11:27:54.852Z,77.98
2023-03-05T11:28:54.162Z,78.19
2023-03-05T11:29:54.159Z,78.39
2023-03-05T11:30:54.168Z,78.91
2023-03-05T11:31:54.146Z,79.12
2023-03-05T11:32:54.143Z,79.33
2023-03-05T11:33:54.112Z,79.60
2023-03-05T11:34:54.112Z,79.84
2023-03-05T11:35:54.125Z,80.15
2023-03-05T11:36:54.076Z,80.46
2023-03-05T11:37:54.074Z,80.88
2023-03-05T11:38:54.055Z,81.39
2023-03-05T11:39:54.054Z,82.12
2023-03-05T11:40:54.034Z,82.74
2023-03-05T11:41:54.030Z,83.15
2023-03-05T11:42:54.006Z,83.81
2023-03-05T11:43:54.007Z,83.81
2023-03-05T11:44:53.998Z,84.22
2023-03-05T11:45:54.022Z,84.43
2023-03-05T11:46:53.966Z,84.43
2023-03-05T11:47:53.980Z,84.22
2023-03-05T11:48:53.944Z,84.12
2023-03-05T11:49:53.945Z,83.87
2023-03-05T11:50:53.918Z,83.77
2023-03-05T11:51:53.913Z,83.36
2023-03-05T11:52:53.917Z,83.15
2023-03-05T11:53:53.891Z,83.36
2023-03-05T11:54:53.887Z,83.84
2023-03-05T11:55:53.871Z,83.22
2023-03-05T11:56:53.862Z,83.22
2023-03-05T11:57:53.859Z,82.70
2023-03-05T11:58:53.841Z,82.87
2023-03-05T11:59:53.837Z,82.04
2023-03-05T12:00:53.811Z,82.56
2023-03-05T12:01:53.812Z,82.76
2023-03-05T12:02:53.874Z,82.15
2023-03-05T12:03:53.833Z,82.42
2023-03-05T12:04:53.800Z,82.10
2023-03-05T12:05:53.767Z,82.10
2023-03-05T12:06:53.756Z,81.90
2023-03-05T12:07:53.746Z,81.28
2023-03-05T12:08:53.737Z,81.07
2023-03-05T12:09:53.767Z,80.97
2023-03-05T12:10:53.721Z,80.25
2023-03-05T12:11:53.708Z,80.04
2023-03-05T12:12:53.698Z,79.73
2023-03-05T12:13:53.679Z,79.63
2023-03-05T12:14:53.677Z,78.91
2023-03-05T12:15:53.662Z,78.39
2023-03-05T12:16:53.662Z,78.39
2023-03-05T12:17:53.659Z,78.56
2023-03-05T12:18:53.640Z,79.59
2023-03-05T12:19:53.625Z,79.28
2023-03-05T12:20:53.681Z,78.25
2023-03-05T12:21:53.591Z,78.14
2023-03-05T12:22:53.591Z,78.25
2023-03-05T12:23:53.574Z,78.25
2023-03-05T12:24:53.573Z,77.63
2023-03-05T12:25:53.541Z,78.18
2023-03-05T12:26:53.559Z,78.18
2023-03-05T12:27:53.535Z,78.28
2023-03-05T12:28:53.523Z,78.39
2023-03-05T12:29:53.504Z,77.98
2023-03-05T12:30:53.497Z,78.18
2023-03-05T12:31:53.534Z,78.91
2023-03-05T12:32:53.503Z,78.70
2023-03-05T12:33:53.460Z,78.91
2023-03-05T12:34:53.454Z,78.74
2023-03-05T12:35:53.518Z,79.05
2023-03-05T12:36:53.462Z,79.36
2023-03-05T12:37:53.461Z,79.36
2023-03-05T12:38:53.408Z,79.52
2023-03-05T12:39:53.394Z,79.52
2023-03-05T12:40:53.386Z,79.63
2023-03-05T12:41:53.375Z,79.73
2023-03-05T12:42:53.398Z,79.52
2023-03-05T12:43:53.359Z,79.63
2023-03-05T12:44:53.338Z,79.52
2023-03-05T12:45:53.334Z,79.42
2023-03-05T12:46:53.344Z,79.94
2023-03-05T12:47:53.319Z,79.22
2023-03-05T12:48:53.318Z,79.42
2023-03-05T12:49:53.301Z,79.42
2023-03-05T12:50:53.273Z,79.73
2023-03-05T12:51:53.266Z,80.15